Time;durP1;ratioP1;P1;durP2;ratioP2;P2;SDS_P1;SDS_P2;PMS_P1;PMS_P2;Temp;Humidity;BMP_temperature;BMP_pressure;BME280_temperature;BME280_humidity;BME280_pressure;Samples;Min_cycle;Max_cycle;Signal;HPM_P1;HPM_P2
2023/11/18 00:02:19;;;;;;;29.92;12.35;;;4.40;99.90;;;;;;5015377;28;20088;-77
2023/11/18 00:04:45;;;;;;;30.08;12.57;;;4.40;99.90;;;;;;5013847;28;20080;-77
2023/11/18 00:07:10;;;;;;;28.33;11.68;;;4.40;99.90;;;;;;5015694;28;20136;-77
2023/11/18 00:09:36;;;;;;;29.17;11.75;;;4.40;99.90;;;;;;5013550;28;20557;-78
2023/11/18 00:12:03;;;;;;;31.17;13.27;;;4.50;99.90;;;;;;5013951;28;20024;-77
2023/11/18 00:14:29;;;;;;;33.58;12.65;;;4.50;99.90;;;;;;5013808;28;20030;-78
2023/11/18 00:16:55;;;;;;;34.08;14.68;;;4.60;99.90;;;;;;5014877;28;20096;-76
2023/11/18 00:19:20;;;;;;;33.45;12.45;;;4.60;99.90;;;;;;5013540;28;20109;-77
2023/11/18 00:21:46;;;;;;;28.08;12.48;;;4.70;99.90;;;;;;5014661;28;20393;-75
2023/11/18 00:24:13;;;;;;;30.77;12.60;;;4.70;99.90;;;;;;5014766;28;20018;-77
2023/11/18 00:26:38;;;;;;;28.20;11.50;;;4.80;99.90;;;;;;5014847;28;20169;-77
2023/11/18 00:29:04;;;;;;;41.17;12.93;;;4.80;99.90;;;;;;5014652;28;20026;-77
2023/11/18 00:31:29;;;;;;;27.73;11.80;;;4.90;99.90;;;;;;5014774;28;20053;-77
2023/11/18 00:33:55;;;;;;;30.35;11.73;;;4.90;99.90;;;;;;5013286;28;20478;-77
2023/11/18 00:36:21;;;;;;;25.25;11.48;;;5.00;99.90;;;;;;5013377;28;20010;-77
2023/11/18 00:38:47;;;;;;;26.38;11.70;;;5.00;99.90;;;;;;5014559;28;20112;-77
2023/11/18 00:41:12;;;;;;;27.45;12.10;;;5.10;99.90;;;;;;5013276;28;20030;-77
2023/11/18 00:43:38;;;;;;;36.65;11.93;;;5.10;99.90;;;;;;5013228;28;20428;-77
2023/11/18 00:46:05;;;;;;;28.48;11.13;;;5.10;99.90;;;;;;5014242;28;20057;-76
2023/11/18 00:48:30;;;;;;;25.83;10.57;;;5.10;99.90;;;;;;5012644;28;20014;-76
2023/11/18 00:50:56;;;;;;;34.10;11.63;;;5.20;99.90;;;;;;5013078;28;20024;-77
2023/11/18 00:53:22;;;;;;;26.15;10.98;;;5.20;99.90;;;;;;5014335;28;20022;-77
2023/11/18 00:55:48;;;;;;;25.25;11.32;;;5.20;99.90;;;;;;5014363;28;20084;-77
2023/11/18 00:58:14;;;;;;;30.50;11.93;;;5.20;99.90;;;;;;5012962;28;20025;-77
2023/11/18 01:00:39;;;;;;;30.98;10.85;;;5.20;99.90;;;;;;5014421;28;20078;-77
2023/11/18 01:03:05;;;;;;;31.95;11.00;;;5.20;99.90;;;;;;5012891;28;20030;-77
2023/11/18 01:05:31;;;;;;;27.48;10.65;;;5.30;99.90;;;;;;5014205;28;20030;-77
2023/11/18 01:07:57;;;;;;;27.30;11.13;;;5.20;99.90;;;;;;5012820;28;20018;-77
2023/11/18 01:10:23;;;;;;;30.17;10.77;;;5.20;99.90;;;;;;5013794;28;20037;-76
2023/11/18 01:12:48;;;;;;;27.73;10.93;;;5.20;99.90;;;;;;5013671;28;20080;-77
2023/11/18 01:15:14;;;;;;;28.90;11.60;;;5.20;99.90;;;;;;5012903;28;20029;-77
2023/11/18 01:17:40;;;;;;;26.65;11.20;;;5.10;99.90;;;;;;5012797;28;20381;-77
2023/11/18 01:20:11;;;;;;;29.20;11.05;;;5.10;99.90;;;;;;5012666;28;20546;-77
2023/11/18 01:22:37;;;;;;;24.50;10.80;;;5.10;99.90;;;;;;5014061;28;20060;-77
2023/11/18 01:25:05;;;;;;;21.38;10.10;;;5.10;99.90;;;;;;5014686;28;20029;-77
2023/11/18 01:27:30;;;;;;;26.25;10.73;;;5.10;99.90;;;;;;5012712;28;20033;-77
2023/11/18 01:29:56;;;;;;;33.70;11.52;;;5.00;99.90;;;;;;5013752;28;20026;-77
2023/11/18 01:32:21;;;;;;;26.75;10.65;;;5.00;99.90;;;;;;5012388;28;20374;-77
2023/11/18 01:34:50;;;;;;;24.85;10.90;;;5.00;99.90;;;;;;5012643;28;20050;-77
2023/11/18 01:37:16;;;;;;;25.10;10.52;;;5.00;99.90;;;;;;5012483;28;20025;-77
2023/11/18 01:39:42;;;;;;;24.25;12.05;;;5.00;99.90;;;;;;5013798;28;20034;-77
2023/11/18 01:42:08;;;;;;;31.50;11.60;;;5.00;99.90;;;;;;5012781;28;20051;-77
2023/11/18 01:44:35;;;;;;;24.95;11.13;;;5.00;99.90;;;;;;5012501;28;20105;-77
2023/11/18 01:47:05;;;;;;;27.77;11.45;;;5.10;99.90;;;;;;5012563;28;20022;-77
2023/11/18 01:49:36;;;;;;;26.73;10.23;;;5.00;99.90;;;;;;5012649;28;20033;-77
2023/11/18 01:52:02;;;;;;;22.70;9.75;;;5.10;99.90;;;;;;5013855;28;20044;-77
2023/11/18 01:54:28;;;;;;;27.55;11.43;;;5.10;99.90;;;;;;5013762;28;20018;-77
2023/11/18 01:56:55;;;;;;;24.05;9.88;;;6.00;99.90;;;;;;5013685;28;20026;-77
2023/11/18 01:59:20;;;;;;;25.25;10.25;;;5.00;99.90;;;;;;5013858;28;20037;-77
2023/11/18 02:01:53;;;;;;;22.90;9.65;;;5.00;99.90;;;;;;5012253;28;20512;-75
2023/11/18 02:04:20;;;;;;;26.77;10.15;;;5.10;99.90;;;;;;5012495;28;20079;-76
2023/11/18 02:06:48;;;;;;;22.52;9.90;;;5.10;99.90;;;;;;5013277;28;20076;-76
2023/11/18 02:09:28;;;;;;;24.00;10.30;;;5.10;99.90;;;;;;5013461;28;20508;-77
2023/11/18 02:12:23;;;;;;;23.40;10.18;;;5.00;99.90;;;;;;5013620;28;20442;-76
2023/11/18 02:14:50;;;;;;;24.80;10.68;;;5.00;99.90;;;;;;5012678;28;20117;-77
2023/11/18 02:17:19;;;;;;;26.92;10.00;;;5.10;99.90;;;;;;5012224;28;20041;-77
2023/11/18 02:19:46;;;;;;;23.95;10.70;;;5.10;99.90;;;;;;5013544;28;20030;-77
2023/11/18 02:22:12;;;;;;;24.83;10.02;;;5.10;99.90;;;;;;5014444;28;20061;-77
2023/11/18 02:24:40;;;;;;;27.45;11.38;;;5.10;99.90;;;;;;5016205;28;20025;-77
2023/11/18 02:27:06;;;;;;;24.88;10.50;;;5.10;99.90;;;;;;5017690;28;20073;-77
2023/11/18 02:29:37;;;;;;;24.17;11.07;;;5.10;99.90;;;;;;5015561;28;20469;-77
2023/11/18 02:32:30;;;;;;;25.90;10.35;;;5.10;99.90;;;;;;5017800;28;20030;-76
2023/11/18 02:35:10;;;;;;;26.48;10.63;;;5.10;99.90;;;;;;5016924;28;20101;-77
2023/11/18 02:37:41;;;;;;;25.25;9.85;;;5.10;99.90;;;;;;5015606;28;20022;-77
2023/11/18 02:40:14;;;;;;;23.95;10.07;;;5.10;99.90;;;;;;5015382;28;20026;-77
2023/11/18 02:42:42;;;;;;;22.92;9.70;;;5.10;99.90;;;;;;5016678;28;20108;-77
2023/11/18 02:45:12;;;;;;;24.48;9.82;;;5.10;99.90;;;;;;5016836;28;20510;-77
2023/11/18 02:47:38;;;;;;;21.98;9.75;;;5.10;99.90;;;;;;5016713;28;20026;-77
2023/11/18 02:50:10;;;;;;;23.27;10.25;;;5.10;99.90;;;;;;5015127;28;20030;-77
2023/11/18 02:52:39;;;;;;;23.50;9.90;;;5.10;99.90;;;;;;5016695;28;20026;-77
2023/11/18 02:55:09;;;;;;;25.17;11.15;;;5.00;99.90;;;;;;5015388;28;20021;-77
2023/11/18 02:57:35;;;;;;;24.70;9.65;;;5.00;99.90;;;;;;5016623;28;20060;-77
2023/11/18 03:00:02;;;;;;;27.42;9.48;;;5.00;99.90;;;;;;5016175;28;20125;-77
2023/11/18 03:02:30;;;;;;;25.45;9.98;;;5.00;99.90;;;;;;5016595;28;20053;-77
2023/11/18 03:04:57;;;;;;;23.73;9.77;;;5.00;99.90;;;;;;5015187;28;20038;-77
2023/11/18 03:07:22;;;;;;;22.98;9.88;;;5.00;99.90;;;;;;5015343;28;20405;-77
2023/11/18 03:09:48;;;;;;;25.23;9.70;;;5.10;99.90;;;;;;5015999;28;20033;-77
2023/11/18 03:12:13;;;;;;;32.65;10.73;;;5.10;99.90;;;;;;5014973;28;20524;-77
2023/11/18 03:14:39;;;;;;;23.92;10.05;;;5.10;99.90;;;;;;5014779;28;20481;-77
2023/11/18 03:17:09;;;;;;;29.77;11.32;;;5.10;99.90;;;;;;5015969;28;20025;-77
2023/11/18 03:19:35;;;;;;;22.00;10.23;;;5.10;99.90;;;;;;5014783;28;20026;-76
2023/11/18 03:22:01;;;;;;;22.50;10.80;;;5.10;99.90;;;;;;5015721;28;20096;-77
2023/11/18 03:24:28;;;;;;;26.55;10.63;;;5.10;99.90;;;;;;5015878;28;20097;-77
2023/11/18 03:26:55;;;;;;;27.05;11.40;;;5.10;99.90;;;;;;5015994;28;20091;-77
2023/11/18 03:29:23;;;;;;;25.95;10.32;;;5.10;99.90;;;;;;5015587;28;20021;-75
2023/11/18 03:31:49;;;;;;;27.98;11.05;;;5.20;99.90;;;;;;5015691;28;20061;-76
2023/11/18 03:34:21;;;;;;;26.90;10.50;;;5.20;99.90;;;;;;5014939;28;20072;-75
2023/11/18 03:36:47;;;;;;;24.95;9.60;;;;;;;;;;5014697;28;20018;-77
2023/11/18 03:39:14;;;;;;;25.20;10.85;;;5.20;99.90;;;;;;5013946;28;20059;-77
2023/11/18 03:41:40;;;;;;;28.50;11.27;;;5.20;99.90;;;;;;5015803;28;20037;-76
2023/11/18 03:44:06;;;;;;;23.00;10.38;;;5.20;99.90;;;;;;5015845;28;20124;-76
2023/11/18 03:46:34;;;;;;;22.92;10.68;;;5.20;99.90;;;;;;5014237;28;20116;-77
2023/11/18 03:49:00;;;;;;;22.75;10.05;;;5.20;99.90;;;;;;5016352;28;20029;-77
2023/11/18 03:51:26;;;;;;;22.92;11.00;;;5.20;99.90;;;;;;5015352;28;20029;-77
2023/11/18 03:53:52;;;;;;;25.13;10.60;;;5.20;99.90;;;;;;5015538;28;20075;-77
2023/11/18 03:56:20;;;;;;;24.48;11.48;;;5.20;99.90;;;;;;5015396;28;20536;-77
2023/11/18 03:58:47;;;;;;;25.98;10.20;;;5.20;99.90;;;;;;5013924;28;20440;-77
2023/11/18 04:01:26;;;;;;;25.83;10.93;;;5.30;99.90;;;;;;5014411;28;20374;-77
2023/11/18 04:03:52;;;;;;;29.48;12.00;;;5.20;99.90;;;;;;5015262;28;20050;-79
2023/11/18 04:06:17;;;;;;;27.25;10.18;;;5.30;99.90;;;;;;5014229;28;20062;-79
2023/11/18 04:08:46;;;;;;;24.05;10.55;;;5.30;99.90;;;;;;5015194;28;20026;-77
2023/11/18 04:11:15;;;;;;;28.27;11.13;;;5.30;99.90;;;;;;5014219;28;20021;-78
2023/11/18 04:13:42;;;;;;;;;;;5.30;99.90;;;;;;5014414;28;20082;-78
2023/11/18 04:16:12;;;;;;;24.80;10.27;;;5.30;99.90;;;;;;5014040;28;19906;-78
2023/11/18 04:18:42;;;;;;;27.20;11.20;;;5.30;99.90;;;;;;5015614;28;20022;-77
2023/11/18 04:21:08;;;;;;;26.23;10.32;;;5.30;99.90;;;;;;5013843;28;20022;-78
2023/11/18 04:23:38;;;;;;;24.33;10.82;;;5.30;99.90;;;;;;5013688;28;20121;-80
2023/11/18 04:26:04;;;;;;;26.42;11.60;;;5.30;99.90;;;;;;5013602;28;20029;-78
2023/11/18 04:28:30;;;;;;;26.40;9.85;;;5.30;99.90;;;;;;5013429;28;20037;-78
2023/11/18 04:30:56;;;;;;;23.33;10.57;;;5.30;99.90;;;;;;5013461;28;20018;-79
2023/11/18 04:33:21;;;;;;;24.88;10.50;;;5.20;99.90;;;;;;5013451;28;20024;-78
2023/11/18 04:35:47;;;;;;;21.88;10.50;;;5.30;99.90;;;;;;5013666;28;20064;-78
2023/11/18 04:38:13;;;;;;;23.65;9.60;;;5.40;99.90;;;;;;5014894;28;20072;-79
2023/11/18 04:40:40;;;;;;;24.67;10.88;;;5.40;99.90;;;;;;5014823;28;20093;-78
2023/11/18 04:43:06;;;;;;;17.00;7.60;;;5.40;99.90;;;;;;5013461;28;20010;-78
2023/11/18 04:45:32;;;;;;;26.55;10.27;;;5.40;99.90;;;;;;5012712;28;20504;-79
2023/11/18 04:47:59;;;;;;;26.80;10.40;;;5.50;99.90;;;;;;5013186;28;20025;-79
2023/11/18 04:50:24;;;;;;;27.58;10.30;;;5.40;99.90;;;;;;5013443;28;20385;-80
2023/11/18 04:52:50;;;;;;;23.30;10.40;;;5.40;99.90;;;;;;5013551;28;20014;-79
2023/11/18 04:55:16;;;;;;;24.50;11.02;;;5.40;99.90;;;;;;5014807;28;20022;-79
2023/11/18 04:57:42;;;;;;;27.90;12.30;;;5.30;99.90;;;;;;5013014;28;20165;-80
2023/11/18 05:00:11;;;;;;;28.73;11.68;;;5.30;99.90;;;;;;5013362;28;20424;-80
2023/11/18 05:02:40;;;;;;;23.45;11.15;;;5.50;99.90;;;;;;5013197;28;20083;-80
2023/11/18 05:05:06;;;;;;;;;;;5.50;99.90;;;;;;5013821;28;20028;-80
2023/11/18 05:07:32;;;;;;;26.45;10.45;;;5.50;99.90;;;;;;5013250;28;19909;-79
2023/11/18 05:09:57;;;;;;;23.75;11.40;;;5.50;99.90;;;;;;5012851;28;20516;-79
2023/11/18 05:12:23;;;;;;;23.17;10.88;;;5.60;99.90;;;;;;5014737;28;20022;-80
2023/11/18 05:14:49;;;;;;;27.80;11.73;;;5.50;99.90;;;;;;5014191;28;20030;-80
2023/11/18 05:17:15;;;;;;;27.83;12.10;;;5.60;99.90;;;;;;5014054;28;20030;-79
2023/11/18 05:19:43;;;;;;;26.80;12.05;;;5.60;99.90;;;;;;5013155;28;20489;-79
2023/11/18 05:22:09;;;;;;;29.15;12.43;;;5.50;99.90;;;;;;5014173;28;20504;-79
2023/11/18 05:24:35;;;;;;;24.35;11.30;;;5.50;99.90;;;;;;5013078;28;20022;-80
2023/11/18 05:27:03;;;;;;;25.25;12.05;;;5.60;99.90;;;;;;5012849;28;20555;-79
2023/11/18 05:29:29;;;;;;;29.50;11.90;;;5.60;99.90;;;;;;5013936;28;20209;-79
2023/11/18 05:31:55;;;;;;;23.75;11.80;;;5.60;99.90;;;;;;5014432;28;20050;-78
2023/11/18 05:34:21;;;;;;;26.35;12.30;;;5.70;99.90;;;;;;5012865;28;20016;-78
2023/11/18 05:36:48;;;;;;;25.40;12.15;;;5.60;99.90;;;;;;5014228;28;20064;-80
2023/11/18 05:39:17;;;;;;;31.02;11.57;;;5.70;99.90;;;;;;5013992;28;20029;-77
2023/11/18 05:41:45;;;;;;;25.35;10.98;;;8.50;99.90;;;;;;5014070;28;20418;-78
2023/11/18 05:44:17;;;;;;;29.58;11.60;;;5.70;99.90;;;;;;5014128;28;20018;-77
2023/11/18 05:46:46;;;;;;;23.02;11.73;;;5.70;99.90;;;;;;5013787;28;20028;-80
2023/11/18 05:49:13;;;;;;;;;;;5.70;99.90;;;;;;5012877;28;20022;-77
2023/11/18 05:51:40;;;;;;;25.58;10.18;;;;;;;;;;5012603;28;19913;-79
2023/11/18 05:54:06;;;;;;;28.25;11.35;;;5.70;99.90;;;;;;5012415;28;20029;-79
2023/11/18 05:56:32;;;;;;;28.73;11.73;;;5.70;99.90;;;;;;5012139;28;20449;-79
2023/11/18 05:58:58;;;;;;;32.05;11.93;;;5.70;99.90;;;;;;5015839;28;20083;-78
2023/11/18 06:01:27;;;;;;;28.65;11.30;;;5.80;99.90;;;;;;5017539;28;20030;-79
2023/11/18 06:03:52;;;;;;;27.58;11.18;;;5.80;99.90;;;;;;5016690;28;20076;-78
2023/11/18 06:06:18;;;;;;;24.85;10.45;;;7.00;99.90;;;;;;5016771;28;20034;-78
2023/11/18 06:08:44;;;;;;;24.25;10.98;;;5.80;99.90;;;;;;5017480;28;20022;-77
2023/11/18 06:11:15;;;;;;;26.33;11.23;;;5.80;99.90;;;;;;5018371;28;20109;-78
2023/11/18 06:13:51;;;;;;;28.73;11.18;;;5.70;99.90;;;;;;5016579;28;20049;-78
2023/11/18 06:16:21;;;;;;;26.20;10.07;;;5.80;99.90;;;;;;5017456;28;20024;-78
2023/11/18 06:18:48;;;;;;;29.77;11.07;;;5.70;99.90;;;;;;5016230;28;20396;-80
2023/11/18 06:21:15;;;;;;;30.52;10.57;;;5.80;99.90;;;;;;5016173;28;20022;-77
2023/11/18 06:23:42;;;;;;;27.77;10.75;;;7.80;99.90;;;;;;5016013;28;20084;-79
2023/11/18 06:26:11;;;;;;;32.20;11.45;;;5.80;99.90;;;;;;5017158;28;20051;-79
2023/11/18 06:28:44;;;;;;;23.08;10.18;;;5.90;99.90;;;;;;5016731;28;20022;-75
2023/11/18 06:31:11;;;;;;;24.52;10.25;;;5.80;99.90;;;;;;5017152;28;20481;-76
2023/11/18 06:33:45;;;;;;;27.63;10.68;;;5.90;99.90;;;;;;5016980;28;20018;-77
2023/11/18 06:36:13;;;;;;;26.73;10.52;;;5.90;99.90;;;;;;5016991;28;20026;-77
2023/11/18 06:38:40;;;;;;;28.17;10.25;;;5.90;99.90;;;;;;5016762;28;20592;-77
2023/11/18 06:41:08;;;;;;;27.45;9.57;;;5.90;99.90;;;;;;5016684;28;20100;-75
2023/11/18 06:43:51;;;;;;;21.73;9.45;;;5.90;99.90;;;;;;5015531;28;20022;-76
2023/11/18 06:46:20;;;;;;;25.52;10.80;;;5.90;99.90;;;;;;5016778;28;20101;-76
2023/11/18 06:48:49;;;;;;;26.33;10.48;;;5.90;99.90;;;;;;5015543;28;20018;-77
2023/11/18 06:51:15;;;;;;;31.00;10.27;;;5.90;99.90;;;;;;5015153;28;20030;-77
2023/11/18 06:53:43;;;;;;;30.77;10.45;;;5.90;99.90;;;;;;5015399;28;20029;-77
2023/11/18 06:56:08;;;;;;;21.92;8.80;;;5.90;99.90;;;;;;5016948;28;20068;-77
2023/11/18 06:58:37;;;;;;;25.13;10.20;;;5.90;99.90;;;;;;5016408;28;20030;-77
2023/11/18 07:01:05;;;;;;;25.00;9.90;;;5.90;99.90;;;;;;5017613;28;20026;-77
2023/11/18 07:03:31;;;;;;;29.13;10.35;;;5.90;99.90;;;;;;5015184;28;20029;-77
2023/11/18 07:05:57;;;;;;;25.20;8.95;;;5.90;99.90;;;;;;5016915;28;20094;-77
2023/11/18 07:08:22;;;;;;;18.08;7.60;;;5.90;99.90;;;;;;5016042;28;20033;-77
2023/11/18 07:10:48;;;;;;;17.60;8.48;;;5.90;99.90;;;;;;5015932;28;20048;-75
2023/11/18 07:13:14;;;;;;;20.63;9.57;;;5.90;99.90;;;;;;5016255;28;20477;-75
2023/11/18 07:15:43;;;;;;;21.25;8.38;;;6.00;99.90;;;;;;5016190;28;20026;-75
2023/11/18 07:18:09;;;;;;;24.60;8.20;;;5.90;99.90;;;;;;5014796;28;20018;-76
2023/11/18 07:20:34;;;;;;;20.40;7.65;;;5.90;99.90;;;;;;5016415;28;20507;-75
2023/11/18 07:23:03;;;;;;;29.58;8.48;;;5.90;99.90;;;;;;5015983;28;20091;-77
2023/11/18 07:25:28;;;;;;;25.98;9.93;;;5.90;99.90;;;;;;5014657;28;20037;-77
2023/11/18 07:27:55;;;;;;;20.10;7.95;;;6.00;99.90;;;;;;5016762;28;20022;-77
2023/11/18 07:30:22;;;;;;;22.65;10.13;;;5.90;99.90;;;;;;5015133;28;20022;-77
2023/11/18 07:32:49;;;;;;;23.05;8.52;;;6.00;99.90;;;;;;5016296;28;20101;-77
2023/11/18 07:35:14;;;;;;;23.73;8.63;;;5.90;99.90;;;;;;5015080;28;20084;-75
2023/11/18 07:37:40;;;;;;;19.77;8.30;;;6.00;99.90;;;;;;5014836;28;20022;-80
2023/11/18 07:40:08;;;;;;;20.58;7.38;;;6.00;99.90;;;;;;5014536;28;20026;-80
2023/11/18 07:42:37;;;;;;;23.73;7.72;;;6.00;99.90;;;;;;5014755;28;20018;-80
2023/11/18 07:45:04;;;;;;;19.85;8.13;;;6.00;99.90;;;;;;5016625;28;20049;-80
2023/11/18 07:47:31;;;;;;;24.70;8.35;;;6.00;99.90;;;;;;5015142;28;20018;-76
2023/11/18 07:49:59;;;;;;;23.70;8.30;;;6.00;99.90;;;;;;5015846;28;20030;-76
2023/11/18 07:52:27;;;;;;;17.52;8.15;;;6.00;99.90;;;;;;5015430;28;20097;-77
2023/11/18 07:54:54;;;;;;;20.70;9.45;;;;;;;;;;5016037;28;20029;-76
2023/11/18 07:57:19;;;;;;;18.58;7.50;;;6.10;99.90;;;;;;5017209;28;20029;-78
2023/11/18 07:59:45;;;;;;;15.90;6.78;;;6.10;99.90;;;;;;5015885;28;20034;-77
2023/11/18 08:02:10;;;;;;;25.17;8.25;;;6.10;99.90;;;;;;5014388;28;20061;-76
2023/11/18 08:04:36;;;;;;;19.25;7.32;;;6.10;99.90;;;;;;5016129;28;20022;-79
2023/11/18 08:07:04;;;;;;;18.88;6.93;;;6.20;99.90;;;;;;5017255;28;20068;-75
2023/11/18 08:09:33;;;;;;;19.15;6.90;;;;;;;;;;5015866;28;20026;-78
2023/11/18 08:11:58;;;;;;;;;;;6.20;99.90;;;;;;5017455;28;20110;-77
2023/11/18 08:14:24;;;;;;;19.25;7.28;;;6.20;99.90;;;;;;5017521;28;19944;-78
2023/11/18 08:16:51;;;;;;;13.52;6.30;;;6.20;99.90;;;;;;5017809;28;20029;-77
2023/11/18 08:19:17;;;;;;;18.67;6.85;;;6.20;99.90;;;;;;5016213;28;20121;-77
2023/11/18 08:21:43;;;;;;;14.70;6.20;;;;;;;;;;5018473;28;20026;-77
2023/11/18 08:24:09;;;;;;;15.50;6.40;;;6.20;99.90;;;;;;5015861;28;20470;-78
2023/11/18 08:26:35;;;;;;;17.85;6.63;;;6.20;99.90;;;;;;5015726;28;20076;-77
2023/11/18 08:29:02;;;;;;;18.73;7.15;;;;;;;;;;5015769;28;20053;-77
2023/11/18 08:31:28;;;;;;;22.95;8.05;;;6.30;99.90;;;;;;5015556;28;20057;-78
2023/11/18 08:33:54;;;;;;;20.73;7.18;;;6.30;99.90;;;;;;5015482;28;20018;-77
2023/11/18 08:36:22;;;;;;;19.52;7.45;;;6.30;99.90;;;;;;5014017;28;20054;-76
2023/11/18 08:38:48;;;;;;;15.93;6.75;;;6.40;99.90;;;;;;5014486;28;20116;-76
2023/11/18 08:41:14;;;;;;;16.25;7.82;;;6.40;99.90;;;;;;5013141;28;20029;-76
2023/11/18 08:43:43;;;;;;;17.75;8.15;;;6.40;99.90;;;;;;5014425;28;20030;-76
2023/11/18 08:46:08;;;;;;;20.70;7.57;;;6.40;99.90;;;;;;5015010;28;20465;-76
2023/11/18 08:48:34;;;;;;;16.60;7.15;;;6.40;99.90;;;;;;5014429;28;20073;-76
2023/11/18 08:51:02;;;;;;;20.42;6.63;;;6.40;99.90;;;;;;5014381;28;20026;-76
2023/11/18 08:53:28;;;;;;;18.73;6.30;;;6.40;99.90;;;;;;5014301;28;20017;-76
2023/11/18 08:55:56;;;;;;;14.32;6.03;;;6.50;99.90;;;;;;5014362;28;20452;-75
2023/11/18 08:58:27;;;;;;;15.50;5.03;;;6.50;99.90;;;;;;5014123;28;20492;-76
2023/11/18 09:00:55;;;;;;;22.33;5.85;;;6.50;99.90;;;;;;5014133;28;20037;-75
2023/11/18 09:03:27;;;;;;;12.93;5.03;;;6.50;99.90;;;;;;5014171;28;20041;-76
2023/11/18 09:05:57;;;;;;;20.17;5.63;;;6.50;99.90;;;;;;5013888;28;20485;-76
2023/11/18 09:08:42;;;;;;;17.58;6.00;;;6.50;99.90;;;;;;5012582;28;20473;-76
2023/11/18 09:11:10;;;;;;;14.85;5.20;;;6.50;99.90;;;;;;5014164;28;20057;-76
2023/11/18 09:13:39;;;;;;;11.98;5.07;;;6.50;99.90;;;;;;5013841;28;20021;-75
2023/11/18 09:16:09;;;;;;;15.30;5.57;;;6.50;99.90;;;;;;5012739;28;20030;-76
2023/11/18 09:18:39;;;;;;;12.88;4.53;;;6.50;99.90;;;;;;5013652;28;20029;-75
2023/11/18 09:21:05;;;;;;;19.52;4.70;;;6.50;99.90;;;;;;5013934;28;20080;-76
2023/11/18 09:23:37;;;;;;;16.52;5.63;;;6.50;99.90;;;;;;5012710;28;20437;-76
2023/11/18 09:26:07;;;;;;;14.38;5.43;;;6.50;99.90;;;;;;5013785;28;20477;-75
2023/11/18 09:28:36;;;;;;;11.05;5.07;;;6.50;99.90;;;;;;5012347;28;20126;-75
2023/11/18 09:31:03;;;;;;;12.73;4.55;;;7.20;99.90;;;;;;5012533;28;20025;-75
2023/11/18 09:33:33;;;;;;;13.80;4.60;;;6.60;99.90;;;;;;5011961;28;20025;-75
2023/11/18 09:36:07;;;;;;;13.63;4.82;;;6.50;99.90;;;;;;5012826;28;20018;-76
2023/11/18 09:38:36;;;;;;;13.10;4.13;;;6.50;99.90;;;;;;5012489;28;20489;-76
2023/11/18 09:41:07;;;;;;;13.77;4.57;;;6.50;99.90;;;;;;5013793;28;20017;-76
2023/11/18 09:43:54;;;;;;;11.32;4.10;;;6.50;99.90;;;;;;5013854;28;20029;-75
2023/11/18 09:46:24;;;;;;;8.82;3.90;;;6.50;99.90;;;;;;5013172;28;20080;-76
2023/11/18 09:48:59;;;;;;;12.13;4.05;;;6.50;99.90;;;;;;5013506;28;20036;-76
2023/11/18 09:51:29;;;;;;;31.33;6.15;;;6.50;99.90;;;;;;5013598;28;20018;-76
2023/11/18 09:54:00;;;;;;;12.02;3.90;;;6.50;99.90;;;;;;5013983;28;20026;-77
2023/11/18 09:57:08;;;;;;;7.45;3.33;;;6.60;99.90;;;;;;5015865;28;20543;-78
2023/11/18 09:59:54;;;;;;;11.27;3.65;;;6.60;99.90;;;;;;5016464;28;20405;-77
2023/11/18 10:02:23;;;;;;;13.43;4.30;;;6.70;99.90;;;;;;5015622;28;20080;-78
2023/11/18 10:04:49;;;;;;;11.55;3.33;;;6.70;99.90;;;;;;5016498;28;20025;-77
2023/11/18 10:07:19;;;;;;;10.30;3.40;;;6.80;99.90;;;;;;5017346;28;20022;-78
2023/11/18 10:09:45;;;;;;;10.13;4.00;;;6.70;99.90;;;;;;5017520;28;20029;-78
2023/11/18 10:12:16;;;;;;;8.98;4.05;;;6.80;99.90;;;;;;5014020;28;20050;-76
2023/11/18 10:14:45;;;;;;;10.27;3.85;;;6.80;99.90;;;;;;5013450;28;20478;-77
2023/11/18 10:17:14;;;;;;;11.80;4.10;;;6.80;99.90;;;;;;5012772;28;20124;-75
2023/11/18 10:19:55;;;;;;;8.23;2.85;;;6.80;99.90;;;;;;5013154;28;20041;-75
2023/11/18 10:22:26;;;;;;;9.93;2.85;;;6.90;99.90;;;;;;5012107;28;20374;-75
2023/11/18 10:24:54;;;;;;;10.15;4.00;;;6.90;99.90;;;;;;5012053;28;20018;-76
2023/11/18 10:27:23;;;;;;;7.25;2.58;;;6.90;99.90;;;;;;5013504;28;20026;-74
2023/11/18 10:29:52;;;;;;;9.23;2.80;;;6.90;99.90;;;;;;5013022;28;20025;-76
2023/11/18 10:32:20;;;;;;;;;;;6.90;99.90;;;;;;5012720;28;20107;-76
2023/11/18 10:34:48;;;;;;;;;;;7.00;99.90;;;;;;5013667;28;19911;-76
2023/11/18 10:37:13;;;;;;;16.25;2.85;;;7.00;99.90;;;;;;5011854;28;19905;-76
2023/11/18 10:39:39;;;;;;;8.93;3.33;;;7.00;99.90;;;;;;5012437;28;20092;-76
2023/11/18 10:42:05;;;;;;;7.15;2.72;;;7.10;99.90;;;;;;5013243;28;20481;-75
2023/11/18 10:44:31;;;;;;;7.97;2.88;;;7.10;99.90;;;;;;5014241;28;20053;-75
2023/11/18 10:46:58;;;;;;;9.52;2.15;;;7.10;99.90;;;;;;5015492;28;20049;-75
2023/11/18 10:49:24;;;;;;;6.80;2.25;;;7.10;99.90;;;;;;5015062;28;20029;-76
2023/11/18 10:51:51;;;;;;;10.00;1.95;;;7.10;99.90;;;;;;5016459;28;20022;-76
2023/11/18 10:54:19;;;;;;;8.05;2.53;;;7.20;99.90;;;;;;5015143;28;20032;-76
2023/11/18 10:56:56;;;;;;;11.68;2.03;;;7.20;99.90;;;;;;5016340;28;20026;-77
2023/11/18 10:59:22;;;;;;;9.48;2.10;;;7.10;99.90;;;;;;5016165;28;20061;-76
2023/11/18 11:01:48;;;;;;;9.07;2.80;;;7.20;99.90;;;;;;5015125;28;20076;-74
2023/11/18 11:04:20;;;;;;;16.30;4.35;;;7.20;99.90;;;;;;5015177;28;20045;-75
2023/11/18 11:06:54;;;;;;;25.60;5.32;;;7.20;99.90;;;;;;5016460;28;20029;-77
2023/11/18 11:09:35;;;;;;;13.15;3.20;;;7.20;99.90;;;;;;5016322;28;20078;-76
2023/11/18 11:12:08;;;;;;;8.95;2.80;;;7.20;99.90;;;;;;5016592;28;20022;-76
2023/11/18 11:14:40;;;;;;;9.27;1.92;;;7.20;99.90;;;;;;5016725;28;20600;-77
2023/11/18 11:17:11;;;;;;;16.52;1.83;;;7.20;99.90;;;;;;5014821;28;20473;-75
2023/11/18 11:19:55;;;;;;;4.97;1.25;;;7.30;99.90;;;;;;5014651;28;20030;-75
2023/11/18 11:22:25;;;;;;;6.00;1.50;;;7.30;99.90;;;;;;5015932;28;20072;-75
2023/11/18 11:25:11;;;;;;;9.32;1.67;;;7.30;99.90;;;;;;5015963;28;20485;-76
2023/11/18 11:28:01;;;;;;;7.25;1.40;;;7.40;99.90;;;;;;5016063;28;20029;-76
2023/11/18 11:30:39;;;;;;;7.72;1.70;;;7.40;99.90;;;;;;5015657;28;20477;-75
2023/11/18 11:33:40;;;;;;;8.43;1.50;;;7.40;99.90;;;;;;5016322;28;20029;-75
2023/11/18 11:36:11;;;;;;;4.70;1.23;;;7.40;99.90;;;;;;5014647;28;20025;-75
2023/11/18 11:38:38;;;;;;;5.90;1.52;;;7.40;99.90;;;;;;5016194;28;20025;-76
2023/11/18 11:41:08;;;;;;;6.38;1.20;;;7.40;99.90;;;;;;5014127;28;20018;-76
2023/11/18 11:43:34;;;;;;;11.18;2.33;;;7.50;99.90;;;;;;5014337;28;20101;-76
2023/11/18 11:46:10;;;;;;;4.60;1.80;;;7.50;99.90;;;;;;5015693;28;20033;-76
2023/11/18 11:48:37;;;;;;;6.03;1.10;;;7.60;99.90;;;;;;5015514;28;20113;-76
2023/11/18 11:51:05;;;;;;;6.63;1.20;;;7.70;99.90;;;;;;5014270;28;20038;-76
2023/11/18 11:53:39;;;;;;;4.03;1.45;;;8.10;99.90;;;;;;5014004;28;20100;-76
2023/11/18 11:56:13;;;;;;;7.97;1.27;;;7.60;99.90;;;;;;5015125;28;20076;-76
2023/11/18 11:58:43;;;;;;;4.35;0.95;;;7.70;99.90;;;;;;5013419;28;20117;-76
2023/11/18 12:01:37;;;;;;;7.90;1.63;;;7.70;99.90;;;;;;5014150;28;20080;-76
2023/11/18 12:04:20;;;;;;;4.13;1.85;;;7.70;99.90;;;;;;5013043;28;20046;-76
2023/11/18 12:06:47;;;;;;;4.90;1.35;;;7.80;99.90;;;;;;5015390;28;20393;-75
2023/11/18 12:09:19;;;;;;;8.10;1.30;;;7.80;99.90;;;;;;5013618;28;20022;-75
2023/11/18 12:11:48;;;;;;;2.78;0.85;;;7.80;99.90;;;;;;5013746;28;20374;-77
2023/11/18 12:17:09;;;;;;;5.93;1.20;;;7.80;99.90;;;;;;5014938;28;20384;-75
2023/11/18 12:19:44;;;;;;;3.10;1.08;;;7.90;99.90;;;;;;5014981;28;20393;-75
2023/11/18 12:22:14;;;;;;;6.18;0.70;;;7.80;99.90;;;;;;5015431;28;20034;-76
2023/11/18 12:24:41;;;;;;;6.63;1.35;;;7.80;99.90;;;;;;5014734;28;20026;-75
2023/11/18 12:27:12;;;;;;;4.78;1.02;;;7.80;99.90;;;;;;5013285;28;20025;-76
2023/11/18 12:29:44;;;;;;;4.15;1.20;;;7.80;99.90;;;;;;5014497;28;20029;-76
2023/11/18 12:32:16;;;;;;;3.47;1.20;;;7.80;99.90;;;;;;5013315;28;20026;-76
2023/11/18 12:34:55;;;;;;;2.72;1.38;;;7.90;99.90;;;;;;5014616;28;20022;-76
2023/11/18 12:37:56;;;;;;;;;;;7.90;99.90;;;;;;5015274;28;20486;-76
2023/11/18 12:40:50;;;;;;;3.85;1.00;;;7.80;99.90;;;;;;4992498;28;20265;-76
2023/11/18 12:43:18;;;;;;;3.58;1.20;;;7.80;99.90;;;;;;5011126;28;20037;-76
2023/11/18 12:46:05;;;;;;;3.60;1.45;;;7.90;99.90;;;;;;5012132;28;20018;-76
2023/11/18 12:48:32;;;;;;;5.00;0.80;;;7.90;99.90;;;;;;4974676;28;20397;-76
2023/11/18 12:50:58;;;;;;;6.25;1.15;;;7.90;99.90;;;;;;5013206;28;20029;-76
2023/11/18 12:53:25;;;;;;;5.20;1.63;;;7.90;99.90;;;;;;5013113;28;20026;-76
2023/11/18 12:55:52;;;;;;;6.72;0.95;;;7.90;99.90;;;;;;5014305;28;20026;-74
2023/11/18 12:58:18;;;;;;;3.22;0.75;;;7.90;99.90;;;;;;5014910;28;20022;-76
2023/11/18 13:00:45;;;;;;;3.60;0.63;;;7.80;99.90;;;;;;5014123;28;20030;-76